createdAt,value
2019-01-05T00:01:47.768Z,40.83
2019-01-05T00:04:33.805Z,36.58
2019-01-05T00:07:19.710Z,37.17
2019-01-05T00:10:08.940Z,37.97
2019-01-05T00:12:55.331Z,35.63
2019-01-05T00:15:41.269Z,34.92
2019-01-05T00:18:31.098Z,35.33
2019-01-05T00:21:19.502Z,32.87
2019-01-05T00:23:45.048Z,37.27
2019-01-05T00:26:14.998Z,36.90
2019-01-05T00:28:59.786Z,37.40
2019-01-05T00:31:37.762Z,36.00
2019-01-05T00:34:12.466Z,35.03
2019-01-05T00:36:59.619Z,33.50
2019-01-05T00:39:46.072Z,34.60
2019-01-05T00:42:33.895Z,37.70
2019-01-05T00:45:03.914Z,34.27
2019-01-05T00:47:41.105Z,34.63
2019-01-05T00:50:17.290Z,36.57
2019-01-05T00:53:03.694Z,37.83
2019-01-05T00:55:49.792Z,34.73
2019-01-05T00:58:27.393Z,34.30
2019-01-05T01:01:03.113Z,32.17
2019-01-05T01:03:51.329Z,29.70
2019-01-05T01:06:21.344Z,30.53
2019-01-05T01:09:00.261Z,30.27
2019-01-05T01:11:30.170Z,27.53
2019-01-05T01:14:16.731Z,32.90
2019-01-05T01:16:58.800Z,30.60
2019-01-05T01:19:31.787Z,32.23
2019-01-05T01:22:07.512Z,33.97
2019-01-05T01:24:37.394Z,31.97
2019-01-05T01:27:16.505Z,32.83
2019-01-05T01:29:49.565Z,32.03
2019-01-05T01:32:20.160Z,35.50
2019-01-05T01:34:50.075Z,36.63
2019-01-05T01:37:26.056Z,36.93
2019-01-05T01:39:56.693Z,33.02
2019-01-05T01:42:26.607Z,32.67
2019-01-05T01:45:14.919Z,33.07
2019-01-05T01:48:03.048Z,33.73
2019-01-05T01:50:47.876Z,32.33
2019-01-05T01:53:33.014Z,33.07
2019-01-05T01:56:03.302Z,29.77
2019-01-05T01:58:38.441Z,30.70
2019-01-05T02:01:08.375Z,30.60
2019-01-05T02:03:42.209Z,26.43
2019-01-05T02:06:12.128Z,29.83
2019-01-05T02:08:58.172Z,31.80
2019-01-05T02:11:44.199Z,30.10
2019-01-05T02:14:16.522Z,30.77
2019-01-05T02:16:52.563Z,29.07
2019-01-05T02:19:28.714Z,28.77
2019-01-05T02:22:35.836Z,29.47
2019-01-05T02:25:18.361Z,30.65
2019-01-05T02:28:22.797Z,26.60
2019-01-05T02:31:24.175Z,27.07
2019-01-05T02:34:18.462Z,24.17
2019-01-05T02:37:08.475Z,25.27
2019-01-05T02:40:06.231Z,25.85
2019-01-05T02:43:01.906Z,28.75
2019-01-05T02:46:03.644Z,30.80
2019-01-05T02:49:00.159Z,24.50
2019-01-05T02:51:55.682Z,26.63
2019-01-05T02:55:08.591Z,24.73
2019-01-05T02:58:03.912Z,20.65
2019-01-05T03:00:56.324Z,21.33
2019-01-05T03:04:01.978Z,19.47
2019-01-05T03:06:59.140Z,22.02
2019-01-05T03:09:50.074Z,20.20
2019-01-05T03:12:29.143Z,22.37
2019-01-05T03:15:38.339Z,22.62
2019-01-05T03:19:00.051Z,22.42
2019-01-05T03:22:21.213Z,23.03
2019-01-05T03:25:13.917Z,18.33
2019-01-05T03:28:32.860Z,21.03
2019-01-05T03:31:23.074Z,20.90
2019-01-05T03:34:05.186Z,21.77
2019-01-05T03:37:11.500Z,18.80
2019-01-05T03:40:09.006Z,17.50
2019-01-05T03:43:16.249Z,18.07
2019-01-05T03:46:10.402Z,14.93
2019-01-05T03:48:43.571Z,16.17
2019-01-05T03:51:37.437Z,14.43
2019-01-05T03:54:19.122Z,13.90
2019-01-05T03:57:10.314Z,13.27
2019-01-05T04:00:07.728Z,13.67
2019-01-05T04:03:18.814Z,12.83
2019-01-05T04:06:17.581Z,11.57
2019-01-05T04:09:21.864Z,11.43
2019-01-05T04:12:07.187Z,12.43
2019-01-05T04:15:07.513Z,11.80
2019-01-05T04:18:06.009Z,12.27
2019-01-05T04:21:20.672Z,11.50
2019-01-05T04:24:13.271Z,11.73
2019-01-05T04:27:15.389Z,10.73
2019-01-05T04:30:26.159Z,10.77
2019-01-05T04:33:05.157Z,10.53
2019-01-05T04:36:00.781Z,9.80
2019-01-05T04:39:16.025Z,10.83
2019-01-05T04:41:52.017Z,8.43
2019-01-05T04:44:44.781Z,10.03
2019-01-05T04:47:50.788Z,10.30
2019-01-05T04:50:36.003Z,9.30
2019-01-05T04:53:11.709Z,9.13
2019-01-05T04:55:53.668Z,7.97
2019-01-05T04:58:44.241Z,8.40
2019-01-05T05:01:45.782Z,7.60
2019-01-05T05:04:53.245Z,6.93
2019-01-05T05:07:57.133Z,7.43
2019-01-05T05:11:07.883Z,9.93
2019-01-05T05:14:15.851Z,7.05
2019-01-05T05:17:00.560Z,7.28
2019-01-05T05:20:07.727Z,8.43
2019-01-05T05:23:26.496Z,8.90
2019-01-05T05:26:13.728Z,9.38
2019-01-05T05:28:46.528Z,7.83
2019-01-05T05:31:33.983Z,10.63
2019-01-05T05:34:39.417Z,9.90
2019-01-05T05:38:04.493Z,8.33
2019-01-05T05:41:11.718Z,8.80
2019-01-05T05:44:16.553Z,9.07
2019-01-05T05:47:01.389Z,8.40
2019-01-05T05:49:58.532Z,7.67
2019-01-05T05:52:59.478Z,7.33
2019-01-05T05:55:52.363Z,6.17
2019-01-05T05:58:55.890Z,6.65
2019-01-05T06:01:51.364Z,5.70
2019-01-05T06:04:34.015Z,5.83
2019-01-05T06:07:41.856Z,6.13
2019-01-05T06:10:48.544Z,5.43
2019-01-05T06:13:57.027Z,4.50
2019-01-05T06:16:47.121Z,5.22
2019-01-05T06:19:39.993Z,4.43
2019-01-05T06:22:15.692Z,4.00
2019-01-05T06:25:22.991Z,3.43
2019-01-05T06:28:12.950Z,3.50
2019-01-05T06:30:46.111Z,2.80
2019-01-05T06:33:34.088Z,2.63
2019-01-05T06:36:28.057Z,3.67
2019-01-05T06:39:29.514Z,2.60
2019-01-05T06:42:18.063Z,3.10
2019-01-05T06:45:19.785Z,2.13
2019-01-05T06:48:15.702Z,2.53
2019-01-05T06:51:21.677Z,3.00
2019-01-05T06:54:12.868Z,2.83
2019-01-05T06:56:51.539Z,3.53
2019-01-05T06:59:59.951Z,2.72
2019-01-05T07:02:51.346Z,2.60
2019-01-05T07:05:32.505Z,2.87
2019-01-05T07:08:23.222Z,3.00
2019-01-05T07:11:35.705Z,2.67
2019-01-05T07:14:30.935Z,2.60
2019-01-05T07:17:41.260Z,2.60
2019-01-05T07:20:48.612Z,2.20
2019-01-05T07:23:59.709Z,3.37
2019-01-05T07:27:23.147Z,2.50
2019-01-05T07:30:35.469Z,2.33
2019-01-05T07:33:35.682Z,2.17
2019-01-05T07:36:30.113Z,2.50
2019-01-05T07:39:34.861Z,1.85
2019-01-05T07:42:37.917Z,2.17
2019-01-05T07:45:34.792Z,2.40
2019-01-05T07:48:39.326Z,3.10
2019-01-05T07:51:45.767Z,2.50
2019-01-05T07:55:00.280Z,3.50
2019-01-05T07:57:32.976Z,3.37
2019-01-05T08:00:18.565Z,4.60
2019-01-05T08:03:06.522Z,3.63
2019-01-05T08:05:48.638Z,3.83
2019-01-05T08:08:54.637Z,4.55
2019-01-05T08:11:52.024Z,3.25
2019-01-05T08:15:09.199Z,4.97
2019-01-05T08:18:11.870Z,3.80
2019-01-05T08:21:02.107Z,3.77
2019-01-05T08:23:47.223Z,3.70
2019-01-05T08:26:27.850Z,4.27
2019-01-05T08:29:26.072Z,3.67
2019-01-05T08:32:51.200Z,4.07
2019-01-05T08:35:54.711Z,4.13
2019-01-05T08:38:58.540Z,4.17
2019-01-05T08:41:49.779Z,4.30
2019-01-05T08:48:05.078Z,4.13
2019-01-05T08:51:09.985Z,4.73
2019-01-05T08:54:15.031Z,4.17
2019-01-05T08:57:14.819Z,3.83
2019-01-05T09:00:08.247Z,4.90
2019-01-05T09:03:18.958Z,4.50
2019-01-05T09:06:06.068Z,5.37
2019-01-05T09:08:54.483Z,4.50
2019-01-05T09:11:48.388Z,4.35
2019-01-05T09:14:33.777Z,4.83
2019-01-05T09:17:28.783Z,4.40
2019-01-05T09:20:40.437Z,5.47
2019-01-05T09:23:36.633Z,4.60
2019-01-05T09:26:45.597Z,5.50
2019-01-05T09:29:35.411Z,4.57
2019-01-05T09:32:45.484Z,5.20
2019-01-05T09:35:24.472Z,4.30
2019-01-05T09:38:15.255Z,4.70
2019-01-05T09:41:13.145Z,4.80
2019-01-05T09:44:14.416Z,4.93
2019-01-05T09:47:45.104Z,4.57
2019-01-05T09:50:47.280Z,3.63
2019-01-05T09:53:53.940Z,4.83
2019-01-05T09:56:57.538Z,4.17
2019-01-05T09:59:54.556Z,4.12
2019-01-05T10:02:48.393Z,4.43
2019-01-05T10:05:57.816Z,5.17
2019-01-05T10:08:49.094Z,3.43
2019-01-05T10:11:58.876Z,4.37
2019-01-05T10:15:15.929Z,4.43
2019-01-05T10:18:23.620Z,4.30
2019-01-05T10:21:30.089Z,4.00
2019-01-05T10:24:30.005Z,4.33
2019-01-05T10:27:21.228Z,4.70
2019-01-05T10:30:17.048Z,4.03
2019-01-05T10:33:24.937Z,4.13
2019-01-05T10:36:15.625Z,5.60
2019-01-05T10:39:10.339Z,3.53
2019-01-05T10:42:06.089Z,3.80
2019-01-05T10:44:41.718Z,4.17
2019-01-05T10:47:35.793Z,3.97
2019-01-05T10:50:37.575Z,3.70
2019-01-05T10:53:27.783Z,3.90
2019-01-05T10:56:13.661Z,4.47
2019-01-05T10:59:30.743Z,4.93
2019-01-05T11:02:17.438Z,8.43
2019-01-05T11:05:35.301Z,4.90
2019-01-05T11:08:32.330Z,4.10
2019-01-05T11:11:17.656Z,4.17
2019-01-05T11:14:20.907Z,3.47
2019-01-05T11:17:13.341Z,4.10
2019-01-05T11:20:20.014Z,4.90
2019-01-05T11:22:56.093Z,4.30
2019-01-05T11:26:00.960Z,4.40
2019-01-05T11:28:45.791Z,4.03
2019-01-05T11:31:50.251Z,3.53
2019-01-05T11:34:59.598Z,4.00
2019-01-05T11:37:52.063Z,4.47
2019-01-05T11:40:47.184Z,4.40
2019-01-05T11:43:49.245Z,4.22
2019-01-05T11:46:55.759Z,5.00
2019-01-05T11:50:00.907Z,4.93
2019-01-05T11:52:53.658Z,5.20
2019-01-05T11:55:44.995Z,5.43
2019-01-05T11:58:38.473Z,5.14
2019-01-05T12:01:31.556Z,4.40
2019-01-05T12:04:10.752Z,4.60
2019-01-05T12:06:55.823Z,4.93
2019-01-05T12:10:00.529Z,3.95
2019-01-05T12:12:51.454Z,4.80
2019-01-05T12:15:57.179Z,3.93
2019-01-05T12:18:36.350Z,4.27
2019-01-05T12:21:30.057Z,4.60
2019-01-05T12:24:22.062Z,6.23
2019-01-05T12:27:04.037Z,3.87
2019-01-05T12:30:18.531Z,4.47
2019-01-05T12:33:10.850Z,4.28
2019-01-05T12:36:15.190Z,4.97
2019-01-05T12:39:20.826Z,4.67
2019-01-05T12:42:26.746Z,4.00
2019-01-05T12:45:45.125Z,4.13
2019-01-05T12:49:10.235Z,4.23
2019-01-05T12:52:07.843Z,5.33
2019-01-05T12:55:07.384Z,5.90
2019-01-05T12:58:04.788Z,4.43
2019-01-05T13:00:59.270Z,4.97
2019-01-05T13:03:44.333Z,4.50
2019-01-05T13:07:02.392Z,3.45
2019-01-05T13:10:12.481Z,4.07
2019-01-05T13:13:00.592Z,3.30
2019-01-05T13:16:13.512Z,3.43
2019-01-05T13:19:27.993Z,3.40
2019-01-05T13:22:38.584Z,3.93
2019-01-05T13:25:20.506Z,3.83
2019-01-05T13:28:08.566Z,3.20
2019-01-05T13:30:49.620Z,3.15
2019-01-05T13:33:31.609Z,3.57
2019-01-05T13:36:34.708Z,3.47
2019-01-05T13:39:16.745Z,3.90
2019-01-05T13:42:08.218Z,3.47
2019-01-05T13:44:59.880Z,3.55
2019-01-05T13:47:57.496Z,3.50
2019-01-05T13:51:05.439Z,3.30
2019-01-05T13:53:54.521Z,3.07
2019-01-05T13:56:24.447Z,2.92
2019-01-05T13:59:00.954Z,3.20
2019-01-05T14:01:47.891Z,3.13
2019-01-05T14:04:21.511Z,3.23
2019-01-05T14:07:06.441Z,2.93
2019-01-05T14:09:37.790Z,3.30
2019-01-05T14:12:16.502Z,3.03
2019-01-05T14:14:46.431Z,2.70
2019-01-05T14:17:31.499Z,3.13
2019-01-05T14:20:13.629Z,3.53
2019-01-05T14:22:59.900Z,3.93
2019-01-05T14:25:35.732Z,3.50
2019-01-05T14:28:04.758Z,2.80
2019-01-05T14:30:49.570Z,2.87
2019-01-05T14:33:36.490Z,2.85
2019-01-05T14:36:10.178Z,3.40
2019-01-05T14:38:59.216Z,3.10
2019-01-05T14:41:45.699Z,2.80
2019-01-05T14:44:15.662Z,2.92
2019-01-05T14:47:02.933Z,3.60
2019-01-05T14:49:49.176Z,3.93
2019-01-05T14:52:19.189Z,3.40
2019-01-05T14:54:49.448Z,3.67
2019-01-05T14:57:34.379Z,3.33
2019-01-05T15:00:20.891Z,3.83
2019-01-05T15:03:10.188Z,3.62
2019-01-05T15:05:42.950Z,3.40
2019-01-05T15:08:23.569Z,4.05
2019-01-05T15:10:53.621Z,4.05
2019-01-05T15:13:42.452Z,4.40
2019-01-05T15:16:38.956Z,3.73
2019-01-05T15:19:47.477Z,4.05
2019-01-05T15:22:19.209Z,4.07
2019-01-05T15:24:58.738Z,4.07
2019-01-05T15:27:56.152Z,4.37
2019-01-05T15:30:28.317Z,4.10
2019-01-05T15:33:19.972Z,4.18
2019-01-05T15:36:15.128Z,4.40
2019-01-05T15:39:15.279Z,4.53
2019-01-05T15:41:45.176Z,4.00
2019-01-05T15:44:35.933Z,4.87
2019-01-05T15:47:13.375Z,4.50
2019-01-05T15:49:43.587Z,5.00
2019-01-05T15:52:24.586Z,5.53
2019-01-05T15:55:08.580Z,5.42
2019-01-05T15:57:41.450Z,5.40
2019-01-05T16:00:30.023Z,11.45
2019-01-05T16:04:01.416Z,6.20
2019-01-05T16:05:58.561Z,8.47
2019-01-05T16:08:36.818Z,7.13
2019-01-05T16:11:23.025Z,6.40
2019-01-05T16:14:10.130Z,6.67
2019-01-05T16:16:48.771Z,7.30
2019-01-05T16:19:33.772Z,8.23
2019-01-05T16:22:21.226Z,9.43
2019-01-05T16:25:00.147Z,8.53
2019-01-05T16:27:46.407Z,8.67
2019-01-05T16:30:34.707Z,8.63
2019-01-05T16:33:19.328Z,9.08
2019-01-05T16:36:03.086Z,8.65
2019-01-05T16:38:51.030Z,9.43
2019-01-05T16:41:21.205Z,10.03
2019-01-05T16:43:51.232Z,10.13
2019-01-05T16:46:37.304Z,10.88
2019-01-05T16:49:18.890Z,10.27
2019-01-05T16:51:48.832Z,12.50
2019-01-05T16:54:30.283Z,11.38
2019-01-05T16:57:23.115Z,11.33
2019-01-05T17:00:14.454Z,11.27
2019-01-05T17:02:44.454Z,10.87
2019-01-05T17:05:14.436Z,12.13
2019-01-05T17:07:47.442Z,11.50
2019-01-05T17:10:26.340Z,11.27
2019-01-05T17:13:08.460Z,10.98
2019-01-05T17:15:56.940Z,10.63
2019-01-05T17:18:29.417Z,12.23
2019-01-05T17:21:05.793Z,13.17
2019-01-05T17:23:52.238Z,12.47
2019-01-05T17:26:27.892Z,11.67
2019-01-05T17:29:14.061Z,13.37
2019-01-05T17:31:54.643Z,11.63
2019-01-05T17:34:41.102Z,12.60
2019-01-05T17:37:15.190Z,10.87
2019-01-05T17:40:01.723Z,10.72
2019-01-05T17:42:46.526Z,11.07
2019-01-05T17:45:16.682Z,12.53
2019-01-05T17:47:58.806Z,10.03
2019-01-05T17:50:37.683Z,10.82
2019-01-05T17:53:10.292Z,10.63
2019-01-05T17:55:58.547Z,11.40
2019-01-05T17:58:28.645Z,11.27
2019-01-05T18:01:01.135Z,11.43
2019-01-05T18:03:47.386Z,10.93
2019-01-05T18:06:35.316Z,10.27
2019-01-05T18:09:08.857Z,11.47
2019-01-05T18:11:50.758Z,12.60
2019-01-05T18:14:37.568Z,12.37
2019-01-05T18:17:25.695Z,13.37
2019-01-05T18:20:06.130Z,12.93
2019-01-05T18:22:52.611Z,11.80
2019-01-05T18:25:39.008Z,13.83
2019-01-05T18:28:09.049Z,12.97
2019-01-05T18:30:47.957Z,13.33
2019-01-05T18:33:28.525Z,12.47
2019-01-05T18:36:14.575Z,14.93
2019-01-05T18:38:55.091Z,13.25
2019-01-05T18:41:26.812Z,13.67
2019-01-05T18:43:56.892Z,13.20
2019-01-05T18:46:33.151Z,15.63
2019-01-05T18:49:14.157Z,14.03
2019-01-05T18:52:00.314Z,14.53
2019-01-05T18:54:30.351Z,14.98
2019-01-05T18:57:16.669Z,12.97
2019-01-05T18:59:50.343Z,15.00
2019-01-05T19:02:35.308Z,15.13
2019-01-05T19:05:05.235Z,15.03
2019-01-05T19:07:36.149Z,14.47
2019-01-05T19:10:12.367Z,16.70
2019-01-05T19:12:58.956Z,13.97
2019-01-05T19:15:44.211Z,16.20
2019-01-05T19:18:14.144Z,15.48
2019-01-05T19:20:49.973Z,17.13
2019-01-05T19:23:19.992Z,13.90
2019-01-05T19:25:58.740Z,16.30
2019-01-05T19:28:34.324Z,14.93
2019-01-05T19:31:12.986Z,14.47
2019-01-05T19:33:51.767Z,16.27
2019-01-05T19:36:40.664Z,15.42
2019-01-05T19:39:23.059Z,14.57
2019-01-05T19:41:46.773Z,13.72
2019-01-05T19:44:25.916Z,13.43
2019-01-05T19:47:12.396Z,13.87
2019-01-05T19:50:00.825Z,13.75
2019-01-05T19:52:48.779Z,14.33
2019-01-05T19:55:31.001Z,13.70
2019-01-05T19:58:01.012Z,14.53
2019-01-05T20:00:36.820Z,14.30
2019-01-05T20:03:15.645Z,14.23
2019-01-05T20:05:45.633Z,16.13
2019-01-05T20:08:31.959Z,14.63
2019-01-05T20:11:04.340Z,15.80
2019-01-05T20:13:50.808Z,16.73
2019-01-05T20:16:32.407Z,16.27
2019-01-05T20:19:02.369Z,17.48
2019-01-05T20:21:35.032Z,17.00
2019-01-05T20:24:05.362Z,19.80
2019-01-05T20:26:41.041Z,19.87
2019-01-05T20:29:16.869Z,19.37
2019-01-05T20:31:55.955Z,18.73
2019-01-05T20:34:26.016Z,18.67
2019-01-05T20:37:04.937Z,19.83
2019-01-05T20:39:50.061Z,18.87
2019-01-05T20:42:25.972Z,18.67
2019-01-05T20:44:58.936Z,19.83
2019-01-05T20:47:39.117Z,18.40
2019-01-05T20:50:26.726Z,17.03
2019-01-05T20:53:02.229Z,19.30
2019-01-05T20:55:38.067Z,16.35
2019-01-05T20:58:10.747Z,18.20
2019-01-05T21:00:42.941Z,15.90
2019-01-05T21:03:30.344Z,16.67
2019-01-05T21:06:20.674Z,15.70
2019-01-05T21:08:59.629Z,16.87
2019-01-05T21:11:29.529Z,16.00
2019-01-05T21:14:16.676Z,16.17
2019-01-05T21:16:49.697Z,16.67
2019-01-05T21:19:30.963Z,16.27
2019-01-05T21:22:20.061Z,19.10
2019-01-05T21:25:06.764Z,19.05
2019-01-05T21:27:47.333Z,17.00
2019-01-05T21:30:19.640Z,18.23
2019-01-05T21:33:04.141Z,18.17
2019-01-05T21:35:42.848Z,17.70
2019-01-05T21:38:47.648Z,17.42
2019-01-05T21:41:32.437Z,17.30
2019-01-05T21:43:58.246Z,19.97
2019-01-05T21:46:44.219Z,17.55
2019-01-05T21:49:14.177Z,18.73
2019-01-05T21:51:55.821Z,18.43
2019-01-05T21:54:48.427Z,16.73
2019-01-05T21:57:15.458Z,19.33
2019-01-05T21:59:45.560Z,17.00
2019-01-05T22:02:27.300Z,16.40
2019-01-05T22:05:01.439Z,15.93
2019-01-05T22:07:48.736Z,18.03
2019-01-05T22:10:22.976Z,16.07
2019-01-05T22:13:09.452Z,16.20
2019-01-05T22:15:42.089Z,17.03
2019-01-05T22:18:28.596Z,15.63
2019-01-05T22:21:10.797Z,16.47
2019-01-05T22:23:56.755Z,16.20
2019-01-05T22:26:40.061Z,15.53
2019-01-05T22:29:16.051Z,15.23
2019-01-05T22:31:46.096Z,14.37
2019-01-05T22:34:22.157Z,13.07
2019-01-05T22:36:58.412Z,13.25
2019-01-05T22:39:46.878Z,13.80
2019-01-05T22:42:32.981Z,13.40
2019-01-05T22:45:21.132Z,13.10
2019-01-05T22:48:03.231Z,11.63
2019-01-05T22:50:42.624Z,12.37
2019-01-05T22:53:14.185Z,15.33
2019-01-05T22:56:00.285Z,14.47
2019-01-05T22:58:42.887Z,13.13
2019-01-05T23:01:24.403Z,12.83
2019-01-05T23:03:54.298Z,12.73
2019-01-05T23:06:27.182Z,12.23
2019-01-05T23:09:01.734Z,11.80
2019-01-05T23:11:48.307Z,11.53
2019-01-05T23:14:33.246Z,10.93
2019-01-05T23:17:09.260Z,12.50
2019-01-05T23:19:55.681Z,11.73
2019-01-05T23:22:25.576Z,12.60
2019-01-05T23:25:11.613Z,12.10
2019-01-05T23:27:58.307Z,13.00
2019-01-05T23:30:44.461Z,11.63
2019-01-05T23:33:14.543Z,12.33
2019-01-05T23:35:50.474Z,11.00
2019-01-05T23:38:22.126Z,9.97
2019-01-05T23:40:55.156Z,10.83
2019-01-05T23:43:45.308Z,9.73
2019-01-05T23:46:29.003Z,10.50
2019-01-05T23:49:04.762Z,9.83
2019-01-05T23:51:50.820Z,10.70
2019-01-05T23:54:37.591Z,10.32
2019-01-05T23:57:24.346Z,9.68
